createdAt,value
2019-02-19T00:00:12.168Z,67.40
2019-02-19T00:02:40.645Z,67.80
2019-02-19T00:05:09.066Z,68.10
2019-02-19T00:07:37.511Z,67.80
2019-02-19T00:10:07.011Z,68.00
2019-02-19T00:12:35.448Z,67.70
2019-02-19T00:15:08.225Z,67.40
2019-02-19T00:17:34.682Z,67.70
2019-02-19T00:20:03.189Z,68.00
2019-02-19T00:22:31.655Z,68.30
2019-02-19T00:25:00.160Z,67.90
2019-02-19T00:27:28.714Z,67.80
2019-02-19T00:29:57.164Z,67.90
2019-02-19T00:32:25.621Z,67.90
2019-02-19T00:34:54.052Z,67.80
2019-02-19T00:37:22.495Z,67.60
2019-02-19T00:39:50.928Z,68.10
2019-02-19T00:42:19.380Z,68.80
2019-02-19T00:44:49.608Z,69.20
2019-02-19T00:47:18.137Z,69.20
2019-02-19T00:49:46.576Z,69.70
2019-02-19T00:52:15.007Z,70.20
2019-02-19T00:54:43.431Z,69.80
2019-02-19T00:57:11.893Z,69.60
2019-02-19T00:59:40.383Z,69.40
2019-02-19T01:02:08.826Z,69.40
2019-02-19T01:04:37.423Z,69.50
2019-02-19T01:07:06.005Z,69.10
2019-02-19T01:09:34.473Z,69.30
2019-02-19T01:12:02.984Z,69.00
2019-02-19T01:14:31.443Z,68.70
2019-02-19T01:16:59.861Z,69.00
2019-02-19T01:19:28.298Z,69.50
2019-02-19T01:21:56.726Z,70.10
2019-02-19T01:24:25.178Z,69.90
2019-02-19T01:26:53.615Z,70.30
2019-02-19T01:29:22.051Z,70.60
2019-02-19T01:31:50.481Z,70.10
2019-02-19T01:34:18.935Z,70.10
2019-02-19T01:36:47.370Z,70.20
2019-02-19T01:39:15.810Z,70.40
2019-02-19T01:41:44.244Z,70.20
2019-02-19T01:44:12.693Z,70.50
2019-02-19T01:46:41.115Z,70.50
2019-02-19T01:49:09.568Z,70.50
2019-02-19T01:51:37.992Z,71.00
2019-02-19T01:54:08.012Z,70.90
2019-02-19T01:56:36.470Z,71.10
2019-02-19T01:59:04.933Z,71.20
2019-02-19T02:01:33.339Z,70.70
2019-02-19T02:04:01.797Z,70.50
2019-02-19T02:06:30.229Z,70.30
2019-02-19T02:08:58.691Z,70.10
2019-02-19T02:11:27.148Z,69.90
2019-02-19T02:13:55.554Z,70.50
2019-02-19T02:16:24.069Z,70.90
2019-02-19T02:18:52.486Z,70.70
2019-02-19T02:21:20.943Z,71.00
2019-02-19T02:23:49.374Z,70.80
2019-02-19T02:26:17.817Z,71.30
2019-02-19T02:28:46.314Z,71.20
2019-02-19T02:31:14.756Z,71.20
2019-02-19T02:33:43.174Z,71.20
2019-02-19T02:36:11.623Z,71.50
2019-02-19T02:38:40.055Z,71.80
2019-02-19T02:41:08.500Z,71.60
2019-02-19T02:43:36.925Z,71.70
2019-02-19T02:46:05.503Z,71.80
2019-02-19T02:48:33.919Z,71.60
2019-02-19T02:51:02.386Z,71.80
2019-02-19T02:53:33.019Z,71.80
2019-02-19T02:56:01.485Z,71.80
2019-02-19T02:58:29.898Z,71.40
2019-02-19T03:00:58.354Z,71.40
2019-02-19T03:03:26.775Z,72.00
2019-02-19T03:06:01.581Z,72.10
2019-02-19T03:08:30.008Z,72.30
2019-02-19T03:10:58.455Z,72.10
2019-02-19T03:13:26.916Z,71.60
2019-02-19T03:16:02.126Z,72.00
2019-02-19T03:18:25.515Z,72.20
2019-02-19T03:20:53.963Z,72.10
2019-02-19T03:23:22.405Z,72.20
2019-02-19T03:25:50.831Z,72.40
2019-02-19T03:28:19.276Z,72.60
2019-02-19T03:30:47.731Z,72.50
2019-02-19T03:33:16.160Z,72.40
2019-02-19T03:35:44.590Z,72.40
2019-02-19T03:38:13.037Z,72.70
2019-02-19T03:40:41.464Z,72.70
2019-02-19T03:43:09.910Z,72.50
2019-02-19T03:45:38.326Z,72.50
2019-02-19T03:48:06.863Z,72.40
2019-02-19T03:50:35.271Z,72.60
2019-02-19T03:53:03.724Z,72.70
2019-02-19T03:55:32.222Z,73.30
2019-02-19T03:58:00.739Z,73.60
2019-02-19T04:00:29.251Z,73.80
2019-02-19T04:02:57.672Z,73.80
2019-02-19T04:05:26.141Z,73.70
2019-02-19T04:07:54.563Z,73.30
2019-02-19T04:10:23.017Z,73.40
2019-02-19T04:12:51.512Z,73.30
2019-02-19T04:15:20.021Z,73.40
2019-02-19T04:17:48.461Z,73.20
2019-02-19T04:20:16.923Z,73.40
2019-02-19T04:22:45.351Z,73.20
2019-02-19T04:25:13.790Z,73.50
2019-02-19T04:27:42.228Z,73.30
2019-02-19T04:30:10.734Z,73.60
2019-02-19T04:32:39.164Z,73.60
2019-02-19T04:35:07.644Z,73.10
2019-02-19T04:37:36.054Z,73.30
2019-02-19T04:40:06.643Z,73.70
2019-02-19T04:42:35.087Z,73.90
2019-02-19T04:45:04.352Z,74.20
2019-02-19T04:47:32.772Z,74.30
2019-02-19T04:50:01.229Z,74.10
2019-02-19T04:52:29.670Z,73.80
2019-02-19T04:54:58.118Z,73.80
2019-02-19T04:57:26.548Z,73.80
2019-02-19T04:59:55.003Z,73.70
2019-02-19T05:02:23.486Z,73.70
2019-02-19T05:04:51.936Z,73.50
2019-02-19T05:07:20.385Z,73.70
2019-02-19T05:09:48.832Z,73.90
2019-02-19T05:12:17.270Z,73.80
2019-02-19T05:14:45.707Z,73.60
2019-02-19T05:17:16.266Z,73.80
2019-02-19T05:19:44.294Z,73.70
2019-02-19T05:22:12.734Z,73.60
2019-02-19T05:24:41.157Z,73.30
2019-02-19T05:27:09.589Z,73.50
2019-02-19T05:29:38.020Z,73.70
2019-02-19T05:32:06.467Z,73.70
2019-02-19T05:34:34.954Z,73.50
2019-02-19T05:37:03.418Z,73.70
2019-02-19T05:39:31.842Z,73.70
2019-02-19T05:42:00.306Z,73.80
2019-02-19T05:44:28.722Z,74.00
2019-02-19T05:46:57.181Z,74.20
2019-02-19T05:49:25.627Z,74.00
2019-02-19T05:51:54.071Z,73.90
2019-02-19T05:54:22.510Z,73.50
2019-02-19T05:56:50.959Z,73.00
2019-02-19T05:59:19.388Z,73.30
2019-02-19T06:01:47.840Z,73.40
2019-02-19T06:04:16.294Z,73.70
2019-02-19T06:06:44.747Z,73.70
2019-02-19T06:09:13.206Z,73.00
2019-02-19T06:11:42.609Z,73.10
2019-02-19T06:14:11.051Z,73.40
2019-02-19T06:16:39.480Z,73.70
2019-02-19T06:19:07.932Z,74.10
2019-02-19T06:21:36.355Z,74.60
2019-02-19T06:24:04.884Z,75.00
2019-02-19T06:26:33.313Z,75.20
2019-02-19T06:29:01.770Z,75.40
2019-02-19T06:31:30.195Z,75.80
2019-02-19T06:33:58.637Z,76.00
2019-02-19T06:36:27.083Z,76.00
2019-02-19T06:38:55.522Z,76.00
2019-02-19T06:41:23.965Z,76.20
2019-02-19T06:43:52.483Z,75.90
2019-02-19T06:46:20.923Z,75.50
2019-02-19T06:48:49.383Z,75.60
2019-02-19T06:51:17.819Z,75.60
2019-02-19T06:53:46.272Z,75.60
2019-02-19T06:56:14.702Z,75.30
2019-02-19T06:58:43.151Z,75.30
2019-02-19T07:01:11.574Z,75.80
2019-02-19T07:03:41.672Z,76.00
2019-02-19T07:06:10.090Z,76.40
2019-02-19T07:08:38.545Z,76.90
2019-02-19T07:11:07.050Z,77.40
2019-02-19T07:13:35.499Z,78.00
2019-02-19T07:16:03.957Z,78.10
2019-02-19T07:18:32.473Z,78.50
2019-02-19T07:21:00.919Z,78.40
2019-02-19T07:23:29.346Z,78.10
2019-02-19T07:25:57.817Z,77.90
2019-02-19T07:28:26.266Z,77.40
2019-02-19T07:30:54.678Z,77.10
2019-02-19T07:33:23.137Z,77.10
2019-02-19T07:35:51.610Z,76.80
2019-02-19T07:38:20.068Z,77.20
2019-02-19T07:40:48.514Z,78.00
2019-02-19T07:43:16.980Z,78.80
2019-02-19T07:45:45.475Z,78.90
2019-02-19T07:48:13.942Z,77.80
2019-02-19T07:50:42.382Z,76.30
2019-02-19T07:53:10.835Z,75.30
2019-02-19T07:55:40.931Z,74.90
2019-02-19T07:58:09.367Z,74.60
2019-02-19T08:00:37.884Z,74.60
2019-02-19T08:03:06.319Z,74.70
2019-02-19T08:05:34.779Z,74.10
2019-02-19T08:08:03.213Z,73.20
2019-02-19T08:10:31.662Z,73.40
2019-02-19T08:13:00.155Z,72.90
2019-02-19T08:15:28.613Z,72.20
2019-02-19T08:17:57.023Z,71.30
2019-02-19T08:20:25.485Z,69.70
2019-02-19T08:22:53.910Z,68.70
2019-02-19T08:25:22.355Z,68.00
2019-02-19T08:27:51.348Z,67.10
2019-02-19T08:30:19.910Z,65.90
2019-02-19T08:32:48.381Z,65.50
2019-02-19T08:35:16.814Z,65.00
2019-02-19T08:37:45.252Z,64.60
2019-02-19T08:40:13.744Z,64.50
2019-02-19T08:42:42.197Z,63.40
2019-02-19T08:45:10.727Z,62.80
2019-02-19T08:47:42.706Z,61.60
2019-02-19T08:50:09.482Z,60.80
2019-02-19T08:52:37.995Z,60.50
2019-02-19T08:55:07.270Z,60.60
2019-02-19T08:57:35.713Z,60.30
2019-02-19T09:00:07.360Z,60.10
2019-02-19T09:02:35.819Z,60.10
2019-02-19T09:05:05.778Z,60.10
2019-02-19T09:07:34.212Z,59.40
2019-02-19T09:10:02.648Z,59.90
2019-02-19T09:12:31.091Z,60.30
2019-02-19T09:14:59.612Z,60.30
2019-02-19T09:17:28.075Z,60.60
2019-02-19T09:19:56.501Z,60.50
2019-02-19T09:22:24.953Z,60.50
2019-02-19T09:24:53.464Z,60.60
2019-02-19T09:27:22.111Z,60.70
2019-02-19T09:29:50.569Z,60.80
2019-02-19T09:32:19.023Z,61.10
2019-02-19T09:34:47.517Z,60.20
2019-02-19T09:37:15.974Z,60.10
2019-02-19T09:39:44.494Z,60.30
2019-02-19T09:42:12.921Z,60.10
2019-02-19T09:44:41.373Z,60.10
2019-02-19T09:47:09.828Z,60.10
2019-02-19T09:49:38.347Z,60.10
2019-02-19T09:52:06.845Z,60.40
2019-02-19T09:54:35.297Z,60.60
2019-02-19T09:57:03.720Z,60.70
2019-02-19T09:59:32.166Z,60.70
2019-02-19T10:02:00.591Z,60.70
2019-02-19T10:04:29.035Z,61.00
2019-02-19T10:06:57.526Z,60.90
2019-02-19T10:09:26.004Z,60.70
2019-02-19T10:11:54.495Z,60.60
2019-02-19T10:14:22.915Z,61.20
2019-02-19T10:16:51.355Z,28.10
2019-02-19T10:19:19.873Z,26.60
2019-02-19T10:21:48.326Z,25.30
2019-02-19T10:24:16.746Z,24.70
2019-02-19T10:26:45.208Z,24.30
2019-02-19T10:29:13.651Z,23.60
2019-02-19T10:31:42.114Z,24.50
2019-02-19T10:34:10.546Z,23.90
2019-02-19T10:36:39.004Z,23.40
2019-02-19T10:39:09.954Z,22.90
2019-02-19T10:41:38.413Z,23.40
2019-02-19T10:44:06.847Z,23.70
2019-02-19T10:46:35.293Z,22.60
2019-02-19T10:49:03.729Z,22.90
2019-02-19T10:51:33.366Z,23.20
2019-02-19T10:54:01.803Z,23.20
2019-02-19T10:56:30.266Z,23.80
2019-02-19T10:58:58.686Z,22.80
2019-02-19T11:01:27.210Z,23.20
2019-02-19T11:03:55.635Z,23.10
2019-02-19T11:06:24.154Z,22.90
2019-02-19T11:08:52.579Z,23.20
2019-02-19T11:11:21.032Z,23.80
2019-02-19T11:13:49.520Z,21.90
2019-02-19T11:16:17.963Z,22.00
2019-02-19T11:18:46.428Z,21.50
2019-02-19T11:21:19.704Z,22.00
2019-02-19T11:23:45.099Z,21.60
2019-02-19T11:26:13.630Z,21.40
2019-02-19T11:28:42.058Z,22.10
2019-02-19T11:31:10.475Z,21.40
2019-02-19T11:33:38.931Z,21.30
2019-02-19T11:36:07.359Z,21.20
2019-02-19T11:38:35.878Z,22.40
2019-02-19T11:41:04.375Z,21.90
2019-02-19T11:43:33.232Z,21.80
2019-02-19T11:46:01.730Z,22.10
2019-02-19T11:48:36.728Z,21.80
2019-02-19T11:51:00.354Z,21.80
2019-02-19T11:53:28.856Z,22.20
2019-02-19T11:55:57.295Z,22.20
2019-02-19T11:58:25.745Z,22.40
2019-02-19T12:00:54.242Z,22.40
2019-02-19T12:03:22.695Z,22.50
2019-02-19T12:05:51.113Z,22.40
2019-02-19T12:08:19.533Z,21.70
2019-02-19T12:10:47.991Z,22.00
2019-02-19T12:13:16.420Z,22.20
2019-02-19T12:15:44.886Z,22.20
2019-02-19T12:18:14.975Z,22.50
2019-02-19T12:20:43.394Z,22.40
2019-02-19T12:23:11.818Z,22.40
2019-02-19T12:25:40.269Z,22.60
2019-02-19T12:28:08.689Z,23.00
2019-02-19T12:30:37.157Z,22.80
2019-02-19T12:33:05.677Z,23.10
2019-02-19T12:35:34.138Z,22.80
2019-02-19T12:38:21.911Z,23.00
2019-02-19T12:40:50.426Z,23.40
2019-02-19T12:43:18.863Z,23.70
2019-02-19T12:45:47.371Z,23.00
2019-02-19T12:48:15.803Z,23.20
2019-02-19T12:50:44.239Z,23.30
2019-02-19T12:53:12.670Z,23.30
2019-02-19T12:55:41.128Z,22.90
2019-02-19T12:58:09.565Z,22.80
2019-02-19T13:00:38.011Z,23.20
2019-02-19T13:03:06.471Z,23.30
2019-02-19T13:05:34.935Z,23.30
2019-02-19T13:08:03.717Z,23.30
2019-02-19T13:10:32.175Z,23.10
2019-02-19T13:13:00.693Z,23.00
2019-02-19T13:15:29.252Z,22.90
2019-02-19T13:17:57.699Z,22.30
2019-02-19T13:20:26.154Z,22.00
2019-02-19T13:22:56.119Z,22.00
2019-02-19T13:25:24.632Z,22.10
2019-02-19T13:27:53.083Z,22.10
2019-02-19T13:30:24.420Z,22.40
2019-02-19T13:32:52.869Z,22.80
2019-02-19T13:35:21.295Z,22.30
2019-02-19T13:37:49.755Z,22.30
2019-02-19T13:40:23.287Z,22.10
2019-02-19T13:42:51.747Z,22.10
2019-02-19T13:45:20.250Z,22.00
2019-02-19T13:47:48.720Z,22.00
2019-02-19T13:50:20.084Z,22.00
2019-02-19T13:52:50.167Z,22.10
2019-02-19T13:55:20.234Z,21.90
2019-02-19T13:58:08.024Z,21.90
2019-02-19T14:00:40.806Z,23.50
2019-02-19T14:03:09.308Z,23.50
2019-02-19T14:05:37.760Z,23.50
2019-02-19T14:08:14.218Z,23.20
2019-02-19T14:10:36.431Z,23.20
2019-02-19T14:13:04.970Z,23.20
2019-02-19T14:15:35.057Z,23.20
2019-02-19T14:18:04.555Z,23.30
2019-02-19T14:20:34.655Z,23.30
2019-02-19T14:23:19.815Z,23.50
2019-02-19T14:25:49.886Z,23.60
2019-02-19T14:28:19.959Z,23.60
2019-02-19T14:31:08.411Z,23.90
2019-02-19T14:33:48.967Z,23.90
2019-02-19T14:36:18.732Z,24.00
2019-02-19T14:38:51.959Z,24.10
2019-02-19T14:41:37.380Z,24.10
2019-02-19T14:44:13.359Z,24.20
2019-02-19T14:46:59.691Z,24.60
2019-02-19T14:49:36.919Z,24.60
2019-02-19T14:52:01.631Z,24.60
2019-02-19T14:54:34.454Z,24.70
2019-02-19T14:57:23.870Z,24.80
2019-02-19T15:00:10.510Z,25.00
2019-02-19T15:02:56.918Z,24.90
2019-02-19T15:05:35.871Z,25.00
2019-02-19T15:08:08.489Z,25.20
2019-02-19T15:10:50.838Z,25.40
2019-02-19T15:13:26.986Z,25.60
2019-02-19T15:15:57.112Z,25.70
2019-02-19T15:18:45.377Z,25.80
2019-02-19T15:21:30.389Z,25.80
2019-02-19T15:24:15.454Z,26.00
2019-02-19T15:27:00.654Z,26.00
2019-02-19T15:29:36.471Z,26.40
2019-02-19T15:32:22.838Z,26.70
2019-02-19T15:34:52.899Z,26.60
2019-02-19T15:37:22.998Z,26.50
2019-02-19T15:39:53.069Z,26.90
2019-02-19T15:42:26.046Z,27.00
2019-02-19T15:45:02.361Z,27.00
2019-02-19T15:47:47.335Z,26.90
2019-02-19T15:50:17.475Z,27.00
2019-02-19T15:53:02.385Z,27.10
2019-02-19T15:55:41.338Z,27.10
2019-02-19T15:58:27.410Z,27.20
2019-02-19T16:01:13.770Z,27.40
2019-02-19T16:03:43.961Z,27.40
2019-02-19T16:06:19.857Z,27.30
2019-02-19T16:08:56.014Z,27.60
2019-02-19T16:11:26.139Z,27.50
2019-02-19T16:14:02.302Z,27.60
2019-02-19T16:16:41.041Z,27.70
2019-02-19T16:19:11.124Z,27.70
2019-02-19T16:21:57.548Z,27.70
2019-02-19T16:24:39.714Z,27.70
2019-02-19T16:27:09.777Z,27.90
2019-02-19T16:29:39.886Z,28.10
2019-02-19T16:32:21.998Z,28.20
2019-02-19T16:35:01.343Z,28.10
2019-02-19T16:37:43.831Z,28.40
2019-02-19T16:40:32.001Z,28.40
2019-02-19T16:43:05.005Z,28.30
2019-02-19T16:45:41.339Z,28.50
2019-02-19T16:48:11.404Z,28.40
2019-02-19T16:50:44.460Z,28.50
2019-02-19T16:53:14.609Z,28.60
2019-02-19T16:55:50.812Z,28.40
2019-02-19T16:58:30.102Z,28.80
2019-02-19T17:01:09.418Z,61.70
2019-02-19T17:03:39.487Z,61.80
2019-02-19T17:06:09.575Z,61.80
2019-02-19T17:08:57.951Z,61.90
2019-02-19T17:11:28.066Z,61.90
2019-02-19T17:14:03.707Z,62.00
2019-02-19T17:16:48.551Z,62.00
2019-02-19T17:19:24.666Z,62.10
2019-02-19T17:21:56.309Z,62.10
2019-02-19T17:24:26.363Z,62.20
2019-02-19T17:27:08.406Z,62.20
2019-02-19T17:29:41.104Z,62.20
2019-02-19T17:32:26.461Z,62.30
2019-02-19T17:34:56.599Z,62.40
2019-02-19T17:37:38.794Z,62.50
2019-02-19T17:40:12.766Z,62.50
2019-02-19T17:42:57.660Z,62.50
2019-02-19T17:45:27.747Z,62.50
2019-02-19T17:48:12.615Z,62.60
2019-02-19T17:50:42.688Z,62.70
2019-02-19T17:53:28.159Z,62.60
2019-02-19T17:55:58.227Z,62.70
2019-02-19T17:58:28.398Z,62.80
2019-02-19T18:01:01.254Z,63.10
2019-02-19T18:03:31.348Z,63.40
2019-02-19T18:06:17.859Z,63.60
2019-02-19T18:08:47.994Z,63.80
2019-02-19T18:11:30.053Z,64.00
2019-02-19T18:14:00.150Z,64.10
2019-02-19T18:16:30.222Z,64.40
2019-02-19T18:18:58.743Z,64.50
2019-02-19T18:21:27.167Z,64.50
2019-02-19T18:23:55.618Z,64.30
2019-02-19T18:26:24.051Z,64.30
2019-02-19T18:28:52.505Z,64.30
2019-02-19T18:31:20.963Z,64.30
2019-02-19T18:33:49.432Z,64.50
2019-02-19T18:36:17.941Z,64.50
2019-02-19T18:38:46.426Z,64.70
2019-02-19T18:41:14.861Z,64.80
2019-02-19T18:43:43.363Z,65.00
2019-02-19T18:46:11.790Z,65.10
2019-02-19T18:48:40.242Z,65.10
2019-02-19T18:51:08.660Z,65.00
2019-02-19T18:53:37.163Z,65.10
2019-02-19T18:56:05.670Z,65.10
2019-02-19T18:58:34.165Z,65.10
2019-02-19T19:01:02.739Z,65.10
2019-02-19T19:03:31.222Z,64.90
2019-02-19T19:05:59.648Z,64.80
2019-02-19T19:08:28.161Z,64.90
2019-02-19T19:10:56.660Z,64.90
2019-02-19T19:13:25.085Z,65.10
2019-02-19T19:15:53.563Z,65.10
2019-02-19T19:18:22.063Z,64.90
2019-02-19T19:20:50.562Z,65.00
2019-02-19T19:23:19.003Z,65.10
2019-02-19T19:25:47.470Z,65.30
2019-02-19T19:28:15.911Z,65.30
2019-02-19T19:30:44.371Z,65.70
2019-02-19T19:33:12.787Z,65.70
2019-02-19T19:35:41.254Z,65.70
2019-02-19T19:38:09.672Z,65.60
2019-02-19T19:40:38.149Z,65.50
2019-02-19T19:43:06.683Z,65.60
2019-02-19T19:45:35.159Z,65.60
2019-02-19T19:48:03.673Z,65.70
2019-02-19T19:50:32.139Z,65.60
2019-02-19T19:53:00.559Z,65.20
2019-02-19T19:55:29.100Z,65.20
2019-02-19T19:57:57.700Z,65.60
2019-02-19T20:00:26.368Z,65.90
2019-02-19T20:02:54.825Z,66.00
2019-02-19T20:05:23.260Z,66.50
2019-02-19T20:07:51.713Z,67.10
2019-02-19T20:10:20.155Z,67.50
2019-02-19T20:12:48.631Z,68.00
2019-02-19T20:15:17.076Z,68.70
2019-02-19T20:17:45.540Z,69.20
2019-02-19T20:20:14.053Z,68.60
2019-02-19T20:22:42.508Z,68.50
2019-02-19T20:25:12.942Z,67.60
2019-02-19T20:27:41.396Z,67.00
2019-02-19T20:30:12.851Z,67.00
2019-02-19T20:32:41.375Z,66.90
2019-02-19T20:35:10.747Z,67.40
2019-02-19T20:37:39.233Z,67.30
2019-02-19T20:40:09.494Z,67.40
2019-02-19T20:42:38.018Z,67.90
2019-02-19T20:45:14.045Z,68.10
2019-02-19T20:47:42.458Z,68.80
2019-02-19T20:50:13.124Z,69.60
2019-02-19T20:52:41.554Z,70.00
2019-02-19T20:55:11.716Z,70.00
2019-02-19T20:57:40.136Z,69.60
2019-02-19T21:00:12.714Z,70.10
2019-02-19T21:02:41.211Z,71.10
2019-02-19T21:05:10.699Z,70.50
2019-02-19T21:07:39.123Z,70.40
2019-02-19T21:10:10.704Z,70.60
2019-02-19T21:12:39.113Z,71.70
2019-02-19T21:15:07.904Z,71.90
2019-02-19T21:17:36.353Z,71.90
2019-02-19T21:20:07.530Z,70.90
2019-02-19T21:22:36.014Z,70.30
2019-02-19T21:25:06.207Z,70.20
2019-02-19T21:27:34.643Z,70.60
2019-02-19T21:30:03.694Z,69.90
2019-02-19T21:32:32.127Z,70.20
2019-02-19T21:35:00.588Z,70.60
2019-02-19T21:37:29.074Z,69.80
2019-02-19T21:39:57.596Z,69.50
2019-02-19T21:42:26.078Z,69.80
2019-02-19T21:44:54.537Z,70.00
2019-02-19T21:47:22.964Z,70.60
2019-02-19T21:49:51.390Z,71.10
2019-02-19T21:52:19.913Z,71.40
2019-02-19T21:54:48.334Z,71.40
2019-02-19T21:57:16.779Z,72.30
2019-02-19T21:59:45.208Z,73.10
2019-02-19T22:02:16.343Z,73.50
2019-02-19T22:04:43.831Z,73.50
2019-02-19T22:07:12.286Z,73.40
2019-02-19T22:09:40.724Z,73.40
2019-02-19T22:12:09.153Z,73.50
2019-02-19T22:14:37.673Z,74.10
2019-02-19T22:17:06.152Z,74.50
2019-02-19T22:19:34.595Z,73.90
2019-02-19T22:22:04.864Z,74.10
2019-02-19T22:24:36.243Z,74.50
2019-02-19T22:27:06.323Z,74.70
2019-02-19T22:29:34.822Z,74.80
2019-02-19T22:32:04.004Z,74.70
2019-02-19T22:34:32.514Z,74.60
2019-02-19T22:37:00.987Z,74.80
2019-02-19T22:39:29.443Z,75.10
2019-02-19T22:41:57.963Z,75.70
2019-02-19T22:44:26.415Z,76.20
2019-02-19T22:46:54.859Z,76.20
2019-02-19T22:49:23.298Z,76.50
2019-02-19T22:51:51.758Z,76.20
2019-02-19T22:54:37.217Z,76.00
2019-02-19T22:57:05.709Z,76.90
2019-02-19T22:59:34.156Z,77.20
2019-02-19T23:02:04.299Z,77.70
2019-02-19T23:04:34.804Z,79.10
2019-02-19T23:07:03.295Z,79.50
2019-02-19T23:09:31.746Z,78.60
2019-02-19T23:12:00.184Z,78.30
2019-02-19T23:14:28.625Z,77.90
2019-02-19T23:16:57.055Z,78.30
2019-02-19T23:19:25.531Z,78.40
2019-02-19T23:21:53.969Z,78.50
2019-02-19T23:24:22.425Z,78.80
2019-02-19T23:26:50.858Z,79.30
2019-02-19T23:29:19.291Z,81.10
2019-02-19T23:31:47.728Z,81.30
2019-02-19T23:34:16.170Z,81.90
2019-02-19T23:36:46.276Z,82.20
2019-02-19T23:39:14.740Z,82.70
2019-02-19T23:41:43.167Z,82.80
2019-02-19T23:44:11.636Z,82.60
2019-02-19T23:46:40.082Z,82.30
2019-02-19T23:49:08.529Z,82.50
2019-02-19T23:51:36.992Z,82.20
2019-02-19T23:54:05.440Z,82.20
2019-02-19T23:56:33.877Z,82.20
2019-02-19T23:59:02.355Z,81.80
